Cosco Taicang — VREV9 — position and weather

sailwx.info

Track history (hours):
 
Tides and Currents Weather Stations Pressure Air Temp Water Temp Dewpoint Dewpoint Depression Visibility Wind Speed Wind Dir Waves Ship Positions

Cosco Taicang

Last reported at 2017-Dec-18 06:28 UTC. Time now 2017-Dec-18 06:42 UTC.
Position N 34°03' W 119°18'.

Length 349 m; draft 12.3 m.

Type: Ship (hazmat cat A). MMSI: 477189297.

Date/timePositionNaut miles runAvg speedWind from/ knotsBaromVisibWave heightAir tempDewpointWater temp
2017-Dec-18 06:28N 34°03' W 119°18'511.1
2017-Dec-18 06:00N 34°04' W 119°24'611.3
2017-Dec-18 05:30N 34°06' W 119°30'611.3
2017-Dec-18 04:57N 34°08' W 119°37'611.5
2017-Dec-18 04:29N 34°09' W 119°44'611.7
2017-Dec-18 03:59N 34°11' W 119°50'611.9
2017-Dec-18 03:30N 34°12' W 119°57'611.9
2017-Dec-18 02:59N 34°14' W 120°04'612.0
2017-Dec-18 02:29N 34°15' W 120°11'611.7
2017-Dec-18 02:00N 34°17' W 120°18'611.7
2017-Dec-18 01:29N 34°18' W 120°25'611.9
2017-Dec-18 00:59N 34°20' W 120°32'611.8
2017-Dec-18 00:29N 34°21' W 120°39'511.6
2017-Dec-18 00:00N 34°23' W 120°45'711.7
2017-Dec-17 23:27N 34°24' W 120°53'611.4
2017-Dec-17 22:57N 34°24' W 120°60'612.6
2017-Dec-17 22:30N 34°24' W 121°07'714.1
2017-Dec-17 22:00N 34°24' W 121°15'714.1
2017-Dec-17 21:30N 34°25' W 121°24'713.5
2017-Dec-17 21:00N 34°25' W 121°32'1613.4
2017-Dec-17 19:47N 34°25' W 121°52'413.7
2017-Dec-17 19:30N 34°25' W 121°56'1813.6
2017-Dec-17 18:12N 34°25' W 122°18'72514.2
2017-Dec-15 15:16N 33°37' W 136°51'814.4
2017-Dec-15 14:42N 33°36' W 137°00'314.3
2017-Dec-15 14:30N 33°36' W 137°04'814.5
2017-Dec-15 13:56N 33°36' W 137°14'714.6
2017-Dec-15 13:26N 33°35' W 137°23'614.6
2017-Dec-15 13:00N 33°35' W 137°30'1414.5
2017-Dec-15 12:01N 33°34' W 137°47'015.0
2017-Dec-15 12:00N 33°33' W 137°48'  
Track history (hours):
 
Tides and Currents Weather Stations Pressure Air Temp Water Temp Dewpoint Dewpoint Depression Visibility Wind Speed Wind Dir Waves Ship Positions

Cosco Taicang

Last reported at 2017-Dec-18 06:28 UTC. Time now 2017-Dec-18 06:42 UTC.
Position N 34°03' W 119°18'.

Length 349 m; draft 12.3 m.

Type: Ship (hazmat cat A). MMSI: 477189297.

Date/timePositionNaut miles runAvg speedWind from/ knotsBaromVisibWave heightAir tempDewpointWater temp
2017-Dec-18 06:28N 34°03' W 119°18'511.1
2017-Dec-18 06:00N 34°04' W 119°24'611.3
2017-Dec-18 05:30N 34°06' W 119°30'611.3
2017-Dec-18 04:57N 34°08' W 119°37'611.5
2017-Dec-18 04:29N 34°09' W 119°44'611.7
2017-Dec-18 03:59N 34°11' W 119°50'611.9
2017-Dec-18 03:30N 34°12' W 119°57'611.9
2017-Dec-18 02:59N 34°14' W 120°04'612.0
2017-Dec-18 02:29N 34°15' W 120°11'611.7
2017-Dec-18 02:00N 34°17' W 120°18'611.7
2017-Dec-18 01:29N 34°18' W 120°25'611.9
2017-Dec-18 00:59N 34°20' W 120°32'611.8
2017-Dec-18 00:29N 34°21' W 120°39'511.6
2017-Dec-18 00:00N 34°23' W 120°45'711.7
2017-Dec-17 23:27N 34°24' W 120°53'611.4
2017-Dec-17 22:57N 34°24' W 120°60'612.6
2017-Dec-17 22:30N 34°24' W 121°07'714.1
2017-Dec-17 22:00N 34°24' W 121°15'714.1
2017-Dec-17 21:30N 34°25' W 121°24'713.5
2017-Dec-17 21:00N 34°25' W 121°32'1613.4
2017-Dec-17 19:47N 34°25' W 121°52'413.7
2017-Dec-17 19:30N 34°25' W 121°56'1813.6
2017-Dec-17 18:12N 34°25' W 122°18'72514.2
2017-Dec-15 15:16N 33°37' W 136°51'814.4
2017-Dec-15 14:42N 33°36' W 137°00'314.3
2017-Dec-15 14:30N 33°36' W 137°04'814.5
2017-Dec-15 13:56N 33°36' W 137°14'714.6
2017-Dec-15 13:26N 33°35' W 137°23'614.6
2017-Dec-15 13:00N 33°35' W 137°30'1414.5
2017-Dec-15 12:01N 33°34' W 137°47'015.0
2017-Dec-15 12:00N 33°33' W 137°48'  

Dump ship's entire track history